Time;durP1;ratioP1;P1;durP2;ratioP2;P2;SDS_P1;SDS_P2;PMS_P1;PMS_P2;Temp;Humidity;BMP_temperature;BMP_pressure;BME280_temperature;BME280_humidity;BME280_pressure;Samples;Min_cycle;Max_cycle;Signal;HPM_P1;HPM_P2
2023/03/06 00:00:56;;;;;;;22.23;11.70;;;2.50;99.90;;;;;;5050409;28;20420;-73
2023/03/06 00:03:24;;;;;;;23.10;11.77;;;2.50;99.90;;;;;;5050206;28;20236;-73
2023/03/06 00:05:50;;;;;;;21.70;10.80;;;2.60;99.90;;;;;;5050104;28;20205;-74
2023/03/06 00:08:16;;;;;;;23.33;11.33;;;2.70;99.90;;;;;;5048777;28;20240;-74
2023/03/06 00:10:41;;;;;;;19.90;10.73;;;2.60;99.90;;;;;;5050133;28;20662;-74
2023/03/06 00:13:11;;;;;;;19.37;11.57;;;2.60;99.90;;;;;;5048783;28;20254;-73
2023/03/06 00:15:37;;;;;;;19.92;10.75;;;2.60;99.90;;;;;;5050285;28;20169;-73
2023/03/06 00:18:04;;;;;;;19.83;11.70;;;2.60;99.90;;;;;;5048401;28;20230;-73
2023/03/06 00:20:31;;;;;;;19.52;10.32;;;2.60;99.90;;;;;;5049996;28;20442;-73
2023/03/06 00:22:56;;;;;;;22.95;11.30;;;2.60;99.90;;;;;;5049929;28;20185;-73
2023/03/06 00:25:23;;;;;;;20.93;11.50;;;2.60;99.90;;;;;;5051028;28;20185;-73
2023/03/06 00:27:49;;;;;;;20.55;11.80;;;2.60;99.90;;;;;;5050551;28;20211;-72
2023/03/06 00:30:18;;;;;;;21.60;11.77;;;2.70;99.90;;;;;;5052547;28;20184;-73
2023/03/06 00:32:44;;;;;;;22.48;12.13;;;2.60;99.90;;;;;;5052775;28;20732;-74
2023/03/06 00:35:11;;;;;;;284.10;113.10;;;2.60;99.90;;;;;;5049161;28;20198;-72
2023/03/06 00:37:37;;;;;;;31.63;16.00;;;2.60;99.90;;;;;;5050456;28;20216;-72
2023/03/06 00:40:11;;;;;;;23.27;12.40;;;2.60;99.90;;;;;;5048775;28;20197;-73
2023/03/06 00:42:37;;;;;;;26.58;12.15;;;2.60;99.90;;;;;;5047959;28;20184;-72
2023/03/06 00:45:03;;;;;;;23.80;12.77;;;2.50;99.90;;;;;;5048071;28;20602;-73
2023/03/06 00:47:29;;;;;;;26.83;12.37;;;2.50;99.90;;;;;;5048993;28;20186;-73
2023/03/06 00:49:54;;;;;;;25.67;14.03;;;2.50;99.90;;;;;;5049125;28;20971;-73
2023/03/06 00:52:20;;;;;;;25.70;11.93;;;2.50;99.90;;;;;;5031253;28;20196;-73
2023/03/06 00:54:45;;;;;;;27.37;13.33;;;2.50;99.90;;;;;;5048853;28;20192;-73
2023/03/06 00:57:11;;;;;;;27.13;12.93;;;2.50;99.90;;;;;;5048823;28;20215;-73
2023/03/06 00:59:37;;;;;;;27.47;11.07;;;2.50;99.90;;;;;;5048850;28;20659;-73
2023/03/06 01:02:03;;;;;;;21.47;12.20;;;2.60;99.90;;;;;;5048733;28;21010;-73
2023/03/06 01:04:28;;;;;;;23.70;12.70;;;2.50;99.90;;;;;;5047668;28;20176;-73
2023/03/06 01:06:54;;;;;;;22.47;12.20;;;2.50;99.90;;;;;;5048984;28;20273;-73
2023/03/06 01:09:19;;;;;;;31.93;14.20;;;2.40;99.90;;;;;;5047275;28;20208;-73
2023/03/06 01:11:45;;;;;;;22.47;13.43;;;2.40;99.90;;;;;;5047553;28;20263;-73
2023/03/06 01:14:11;;;;;;;23.90;12.93;;;2.40;99.90;;;;;;5048787;28;20188;-73
2023/03/06 01:16:36;;;;;;;26.60;12.70;;;2.40;99.90;;;;;;5048944;28;20235;-73
2023/03/06 01:19:02;;;;;;;30.50;14.77;;;2.40;99.90;;;;;;5048628;28;20766;-73
2023/03/06 01:21:28;;;;;;;22.80;13.17;;;2.40;99.90;;;;;;5048670;28;20184;-73
2023/03/06 01:23:53;;;;;;;27.93;13.80;;;2.40;99.90;;;;;;5047506;28;20431;-73
2023/03/06 01:26:19;;;;;;;25.87;13.37;;;2.30;99.90;;;;;;5048877;28;20187;-73
2023/03/06 01:28:44;;;;;;;26.37;13.57;;;2.30;99.90;;;;;;5047051;28;20208;-73
2023/03/06 01:31:10;;;;;;;31.03;13.70;;;2.30;99.90;;;;;;5030734;28;20203;-73
2023/03/06 01:33:36;;;;;;;33.00;15.00;;;2.30;99.90;;;;;;5048903;28;20669;-73
2023/03/06 01:36:07;;;;;;;27.10;13.85;;;2.30;99.90;;;;;;5048647;28;20451;-74
2023/03/06 01:38:34;;;;;;;29.05;14.43;;;2.30;99.90;;;;;;5047179;28;20722;-73
2023/03/06 01:41:02;;;;;;;24.75;12.93;;;2.30;99.90;;;;;;5048387;28;20315;-73
2023/03/06 01:43:30;;;;;;;28.25;14.43;;;2.30;99.90;;;;;;5049026;28;20603;-73
2023/03/06 01:46:27;;;;;;;29.60;13.98;;;2.40;99.90;;;;;;5047350;28;20548;-73
2023/03/06 01:48:58;;;;;;;27.17;12.50;;;2.30;99.90;;;;;;5048876;28;20287;-73
2023/03/06 01:51:29;;;;;;;25.88;13.27;;;2.30;99.90;;;;;;5049118;28;20189;-73
2023/03/06 01:53:56;;;;;;;25.52;14.40;;;2.30;99.90;;;;;;5047881;28;20200;-73
2023/03/06 01:56:23;;;;;;;23.55;13.20;;;2.30;99.90;;;;;;5049001;28;20213;-72
2023/03/06 01:58:50;;;;;;;26.92;14.20;;;2.40;99.90;;;;;;5047708;28;20285;-73
2023/03/06 02:01:17;;;;;;;22.55;12.20;;;2.30;99.90;;;;;;5049021;28;20184;-73
2023/03/06 02:03:44;;;;;;;26.67;12.77;;;2.40;99.90;;;;;;5047751;28;20168;-74
2023/03/06 02:06:10;;;;;;;21.30;12.25;;;2.30;99.90;;;;;;5048875;28;20212;-73
2023/03/06 02:08:36;;;;;;;24.87;12.80;;;2.30;99.90;;;;;;5051552;28;20240;-73
2023/03/06 02:11:13;;;;;;;25.15;12.63;;;2.30;99.90;;;;;;5052677;28;20800;-73
2023/03/06 02:13:40;;;;;;;28.75;13.57;;;2.30;99.90;;;;;;5052670;28;20192;-73
2023/03/06 02:16:08;;;;;;;29.95;13.02;;;2.30;99.90;;;;;;5052303;28;20603;-73
2023/03/06 02:18:34;;;;;;;21.13;12.35;;;2.30;99.90;;;;;;5052143;28;20216;-73
2023/03/06 02:21:05;;;;;;;23.30;11.73;;;2.30;99.90;;;;;;5051956;28;20209;-73
2023/03/06 02:23:49;;;;;;;22.13;11.63;;;2.30;99.90;;;;;;5050523;28;20207;-74
2023/03/06 02:26:15;;;;;;;19.33;10.80;;;2.40;99.90;;;;;;5050400;28;20187;-73
2023/03/06 02:28:41;;;;;;;20.13;11.07;;;2.40;99.90;;;;;;5050393;28;20981;-73
2023/03/06 02:31:17;;;;;;;27.13;13.57;;;2.30;99.90;;;;;;5051964;28;20259;-73
2023/03/06 02:33:42;;;;;;;26.15;13.70;;;2.30;99.90;;;;;;5051754;28;20682;-73
2023/03/06 02:36:12;;;;;;;21.80;11.23;;;2.30;99.90;;;;;;5051765;28;20211;-73
2023/03/06 02:38:48;;;;;;;22.80;12.23;;;2.40;99.90;;;;;;5050030;28;20315;-73
2023/03/06 02:41:14;;;;;;;19.75;11.88;;;2.40;99.90;;;;;;5051834;28;20543;-73
2023/03/06 02:43:44;;;;;;;21.38;12.00;;;2.50;99.90;;;;;;5050044;28;20215;-73
2023/03/06 02:46:10;;;;;;;21.92;11.02;;;2.40;99.90;;;;;;5049920;28;20211;-74
2023/03/06 02:48:35;;;;;;;27.63;10.27;;;2.50;99.90;;;;;;5051496;28;20639;-73
2023/03/06 02:51:01;;;;;;;17.37;10.13;;;2.50;99.90;;;;;;5051489;28;20264;-73
2023/03/06 02:53:26;;;;;;;19.47;10.73;;;2.50;99.90;;;;;;5051282;28;20187;-72
2023/03/06 02:55:53;;;;;;;26.20;12.20;;;2.50;99.90;;;;;;5050326;28;20187;-73
2023/03/06 02:58:19;;;;;;;17.52;10.13;;;2.50;99.90;;;;;;5051332;28;20227;-73
2023/03/06 03:00:46;;;;;;;22.83;12.20;;;2.50;99.90;;;;;;5051359;28;20188;-73
2023/03/06 03:03:12;;;;;;;19.88;11.82;;;2.50;99.90;;;;;;5051223;28;20511;-74
2023/03/06 03:05:37;;;;;;;23.90;11.30;;;2.40;99.90;;;;;;5033409;28;20271;-73
2023/03/06 03:08:03;;;;;;;23.77;13.10;;;2.40;99.90;;;;;;5049791;28;20246;-73
2023/03/06 03:10:29;;;;;;;21.27;12.00;;;2.40;99.90;;;;;;5051022;28;20180;-73
2023/03/06 03:12:56;;;;;;;25.02;13.18;;;2.50;99.90;;;;;;5049858;28;20271;-74
2023/03/06 03:15:21;;;;;;;25.30;12.15;;;2.40;99.90;;;;;;5050895;28;20188;-73
2023/03/06 03:17:47;;;;;;;26.40;12.10;;;2.40;99.90;;;;;;5049032;28;20227;-73
2023/03/06 03:20:16;;;;;;;22.63;12.20;;;2.40;99.90;;;;;;5050861;28;20724;-74
2023/03/06 03:22:42;;;;;;;21.42;11.93;;;2.50;99.90;;;;;;5050834;28;20185;-74
2023/03/06 03:25:08;;;;;;;24.23;12.93;;;2.50;99.90;;;;;;5049456;28;20270;-74
2023/03/06 03:27:33;;;;;;;23.95;12.50;;;2.60;99.90;;;;;;5049117;28;20214;-73
2023/03/06 03:29:59;;;;;;;19.97;11.43;;;2.70;99.90;;;;;;5049306;28;20193;-73
2023/03/06 03:32:26;;;;;;;20.90;11.60;;;2.60;99.90;;;;;;5050671;28;20193;-73
2023/03/06 03:34:53;;;;;;;20.75;11.15;;;2.70;99.90;;;;;;5050542;28;20199;-73
2023/03/06 03:37:19;;;;;;;22.58;11.63;;;2.70;99.90;;;;;;5050214;28;20693;-74
2023/03/06 03:39:44;;;;;;;28.53;12.80;;;2.70;99.90;;;;;;5050361;28;20191;-73
2023/03/06 03:42:10;;;;;;;24.80;11.33;;;2.80;99.90;;;;;;5050606;28;20607;-74
2023/03/06 03:44:35;;;;;;;25.30;12.43;;;2.80;99.90;;;;;;5049185;28;20188;-73
2023/03/06 03:47:01;;;;;;;23.20;12.60;;;2.80;99.90;;;;;;5050406;28;20322;-73
2023/03/06 03:49:26;;;;;;;21.80;10.87;;;2.70;99.90;;;;;;5050254;28;20208;-74
2023/03/06 03:51:52;;;;;;;20.23;10.97;;;2.70;99.90;;;;;;5049214;28;20279;-74
2023/03/06 03:54:18;;;;;;;21.10;11.33;;;2.80;99.90;;;;;;5032531;28;20196;-74
2023/03/06 03:56:44;;;;;;;24.07;12.50;;;2.70;99.90;;;;;;5050628;28;20185;-72
2023/03/06 03:59:10;;;;;;;22.13;11.83;;;2.70;99.90;;;;;;5050960;28;20567;-75
2023/03/06 04:01:36;;;;;;;27.77;12.52;;;2.80;99.90;;;;;;5049389;28;20447;-73
2023/03/06 04:04:02;;;;;;;20.77;11.55;;;2.80;99.90;;;;;;5049294;28;20185;-74
2023/03/06 04:06:28;;;;;;;22.67;12.30;;;2.80;99.90;;;;;;5049282;28;20185;-74
2023/03/06 04:08:53;;;;;;;20.97;11.30;;;2.80;99.90;;;;;;5050743;28;20202;-74
2023/03/06 04:11:19;;;;;;;20.87;10.77;;;2.80;99.90;;;;;;5049318;28;20423;-74
2023/03/06 04:13:45;;;;;;;21.30;10.90;;;2.80;99.90;;;;;;5050323;28;20207;-74
2023/03/06 04:16:10;;;;;;;20.37;11.50;;;2.80;99.90;;;;;;5032630;28;20193;-73
2023/03/06 04:18:36;;;;;;;20.47;12.00;;;2.80;99.90;;;;;;5048334;28;20290;-73
2023/03/06 04:21:02;;;;;;;25.70;11.80;;;2.80;99.90;;;;;;5050027;28;20195;-74
2023/03/06 04:23:27;;;;;;;24.23;12.77;;;2.80;99.90;;;;;;5049883;28;20261;-73
2023/03/06 04:25:53;;;;;;;18.60;11.00;;;2.80;99.90;;;;;;5049799;28;20556;-73
2023/03/06 04:28:19;;;;;;;20.83;10.30;;;2.80;99.90;;;;;;5049778;28;20775;-72
2023/03/06 04:30:44;;;;;;;15.40;10.47;;;2.80;99.90;;;;;;5048876;28;20181;-73
2023/03/06 04:33:11;;;;;;;20.80;10.40;;;2.80;99.90;;;;;;5049637;28;20184;-73
2023/03/06 04:35:36;;;;;;;18.52;9.98;;;2.90;99.90;;;;;;5048489;28;20207;-73
2023/03/06 04:38:03;;;;;;;17.10;9.27;;;2.80;99.90;;;;;;5048346;28;20231;-73
2023/03/06 04:40:31;;;;;;;22.10;9.30;;;2.90;99.90;;;;;;5048419;28;20638;-72
2023/03/06 04:42:58;;;;;;;17.35;10.10;;;2.90;99.90;;;;;;5032003;28;20246;-73
2023/03/06 04:45:25;;;;;;;18.00;10.52;;;2.90;99.90;;;;;;5048649;28;20191;-73
2023/03/06 04:47:51;;;;;;;18.30;10.00;;;2.90;99.90;;;;;;5049620;28;20209;-73
2023/03/06 04:50:17;;;;;;;21.93;10.50;;;2.80;99.90;;;;;;5049538;28;20246;-73
2023/03/06 04:52:43;;;;;;;18.67;9.82;;;2.80;99.90;;;;;;5049425;28;20197;-73
2023/03/06 04:55:12;;;;;;;15.02;9.05;;;2.80;99.90;;;;;;5049357;28;20212;-74
2023/03/06 04:57:39;;;;;;;18.00;10.15;;;2.80;99.90;;;;;;5048931;28;20647;-73
2023/03/06 05:00:10;;;;;;;17.33;9.30;;;2.80;99.90;;;;;;5049225;28;20236;-74
2023/03/06 05:02:36;;;;;;;14.68;8.65;;;2.70;99.90;;;;;;5048882;28;20186;-74
2023/03/06 05:05:03;;;;;;;17.70;8.40;;;2.60;99.90;;;;;;5049006;28;20188;-74
2023/03/06 05:07:28;;;;;;;14.90;9.65;;;2.70;99.90;;;;;;5047363;28;20188;-75
2023/03/06 05:09:54;;;;;;;18.83;11.57;;;2.70;99.90;;;;;;5048892;28;20244;-74
2023/03/06 05:12:19;;;;;;;15.50;10.20;;;2.70;99.90;;;;;;5048855;28;20195;-75
2023/03/06 05:14:45;;;;;;;17.10;9.07;;;2.70;99.90;;;;;;5048917;28;20184;-73
2023/03/06 05:17:10;;;;;;;14.00;8.73;;;2.60;99.90;;;;;;5049090;28;20228;-74
2023/03/06 05:19:36;;;;;;;16.83;9.73;;;2.70;99.90;;;;;;5049361;28;20292;-74
2023/03/06 05:22:02;;;;;;;17.37;10.57;;;2.70;99.90;;;;;;5049348;28;20220;-73
2023/03/06 05:24:28;;;;;;;15.63;10.15;;;2.70;99.90;;;;;;5048724;28;20181;-72
2023/03/06 05:26:53;;;;;;;17.70;10.13;;;2.70;99.90;;;;;;5046929;28;20199;-72
2023/03/06 05:29:19;;;;;;;20.53;10.80;;;2.70;99.90;;;;;;5048554;28;20221;-73
2023/03/06 05:31:45;;;;;;;17.40;10.47;;;2.70;99.90;;;;;;5046953;28;20190;-74
2023/03/06 05:34:15;;;;;;;18.63;11.03;;;2.70;99.90;;;;;;5048395;28;20431;-74
2023/03/06 05:36:41;;;;;;;22.55;11.73;;;2.70;99.90;;;;;;5048222;28;20200;-73
2023/03/06 05:39:07;;;;;;;20.70;10.48;;;2.70;99.90;;;;;;5047083;28;20235;-73
2023/03/06 05:41:33;;;;;;;17.55;9.70;;;2.70;99.90;;;;;;5049704;28;20274;-73
2023/03/06 05:43:59;;;;;;;19.03;10.27;;;2.70;99.90;;;;;;5052751;28;20296;-73
2023/03/06 05:46:25;;;;;;;23.33;10.53;;;2.60;99.90;;;;;;5051274;28;20550;-72
2023/03/06 05:48:54;;;;;;;21.73;11.43;;;2.60;99.90;;;;;;5054417;28;20777;-72
2023/03/06 05:51:21;;;;;;;20.92;10.90;;;2.70;99.90;;;;;;5053053;28;20192;-72
2023/03/06 05:53:46;;;;;;;17.92;11.07;;;2.60;99.90;;;;;;5051274;28;20199;-73
2023/03/06 05:56:12;;;;;;;17.83;10.47;;;2.70;99.90;;;;;;5052866;28;20182;-72
2023/03/06 05:58:38;;;;;;;20.57;11.00;;;2.60;99.90;;;;;;5052751;28;20224;-73
2023/03/06 06:01:13;;;;;;;19.55;10.88;;;2.60;99.90;;;;;;5051123;28;20654;-73
2023/03/06 06:03:39;;;;;;;24.48;11.95;;;2.60;99.90;;;;;;5049894;28;20224;-73
2023/03/06 06:06:06;;;;;;;18.60;10.80;;;2.60;99.90;;;;;;5051076;28;20213;-73
2023/03/06 06:08:31;;;;;;;19.25;11.15;;;2.60;99.90;;;;;;5049656;28;20214;-72
2023/03/06 06:10:57;;;;;;;23.70;11.50;;;2.60;99.90;;;;;;5050939;28;20206;-73
2023/03/06 06:13:23;;;;;;;21.27;10.60;;;2.60;99.90;;;;;;5050995;28;20525;-73
2023/03/06 06:15:48;;;;;;;16.73;10.20;;;2.50;99.90;;;;;;5050691;28;20200;-73
2023/03/06 06:18:14;;;;;;;26.27;12.03;;;2.40;99.90;;;;;;5049120;28;20224;-73
2023/03/06 06:20:39;;;;;;;18.67;11.27;;;2.50;99.90;;;;;;5049235;28;20186;-73
2023/03/06 06:23:05;;;;;;;16.17;10.60;;;2.50;99.90;;;;;;5049362;28;20197;-72
2023/03/06 06:25:31;;;;;;;15.13;9.37;;;2.50;99.90;;;;;;5049311;28;20211;-73
2023/03/06 06:27:57;;;;;;;22.97;10.83;;;2.50;99.90;;;;;;5050706;28;20209;-73
2023/03/06 06:30:23;;;;;;;19.17;10.93;;;2.50;99.90;;;;;;5050658;28;20427;-73
2023/03/06 06:32:49;;;;;;;19.35;11.13;;;2.50;99.90;;;;;;5049178;28;20214;-73
2023/03/06 06:35:14;;;;;;;22.73;10.20;;;2.60;99.90;;;;;;5050560;28;20219;-73
2023/03/06 06:37:40;;;;;;;21.73;10.27;;;2.50;99.90;;;;;;5050601;28;20225;-73
2023/03/06 06:40:06;;;;;;;18.57;10.30;;;2.60;99.90;;;;;;5050823;28;20652;-73
2023/03/06 06:42:33;;;;;;;16.30;10.25;;;2.60;99.90;;;;;;5050540;28;20222;-73
2023/03/06 06:44:59;;;;;;;25.88;10.88;;;2.60;99.90;;;;;;5049010;28;20185;-73
2023/03/06 06:47:24;;;;;;;16.67;9.73;;;2.60;99.90;;;;;;5050413;28;20189;-73
2023/03/06 06:49:51;;;;;;;17.03;10.23;;;2.70;99.90;;;;;;5050333;28;20268;-73
2023/03/06 06:52:17;;;;;;;18.33;10.30;;;2.60;99.90;;;;;;5049073;28;20181;-73
2023/03/06 06:54:43;;;;;;;19.40;11.20;;;2.60;99.90;;;;;;5050174;28;20194;-73
2023/03/06 06:57:13;;;;;;;21.95;12.00;;;2.70;99.90;;;;;;5050738;28;20194;-73
2023/03/06 06:59:39;;;;;;;16.48;10.02;;;2.60;99.90;;;;;;5051003;28;20184;-73
2023/03/06 07:02:04;;;;;;;19.10;10.43;;;2.70;99.90;;;;;;5050622;28;20247;-73
2023/03/06 07:04:30;;;;;;;15.23;9.70;;;2.70;99.90;;;;;;5048850;28;20243;-73
2023/03/06 07:06:56;;;;;;;18.27;11.10;;;2.50;99.90;;;;;;5048867;28;20181;-73
2023/03/06 07:09:22;;;;;;;21.92;11.30;;;2.60;99.90;;;;;;5049784;28;20201;-73
2023/03/06 07:11:48;;;;;;;18.23;10.57;;;2.70;99.90;;;;;;5050087;28;20661;-73
2023/03/06 07:14:13;;;;;;;18.80;10.40;;;2.60;99.90;;;;;;5049949;28;20438;-73
2023/03/06 07:16:39;;;;;;;16.93;9.97;;;2.60;99.90;;;;;;5048235;28;20593;-73
2023/03/06 07:19:05;;;;;;;17.40;10.10;;;2.60;99.90;;;;;;5049595;28;20210;-73
2023/03/06 07:21:31;;;;;;;22.45;12.18;;;2.60;99.90;;;;;;5050186;28;20938;-73
2023/03/06 07:23:57;;;;;;;21.37;10.53;;;2.60;99.90;;;;;;5049774;28;20218;-73
2023/03/06 07:26:24;;;;;;;17.60;10.40;;;2.60;99.90;;;;;;5049736;28;20641;-73
2023/03/06 07:28:52;;;;;;;17.88;10.93;;;2.60;99.90;;;;;;5049274;28;20434;-73
2023/03/06 07:31:20;;;;;;;18.80;11.57;;;2.70;99.90;;;;;;5049391;28;20206;-74
2023/03/06 07:33:47;;;;;;;17.10;10.75;;;2.70;99.90;;;;;;5047711;28;20189;-71
2023/03/06 07:36:12;;;;;;;17.88;10.82;;;2.70;99.90;;;;;;5049247;28;20256;-73
2023/03/06 07:38:38;;;;;;;18.90;11.07;;;2.70;99.90;;;;;;5049135;28;20229;-73
2023/03/06 07:41:04;;;;;;;16.83;9.40;;;2.80;99.90;;;;;;5030805;28;20218;-74
2023/03/06 07:43:30;;;;;;;19.13;11.27;;;2.80;99.90;;;;;;5049136;28;20722;-74
2023/03/06 07:45:57;;;;;;;16.42;10.20;;;2.80;99.90;;;;;;5048980;28;20448;-74
2023/03/06 07:48:23;;;;;;;15.38;9.45;;;2.80;99.90;;;;;;5048943;28;20282;-74
2023/03/06 07:51:00;;;;;;;21.43;11.03;;;2.80;99.90;;;;;;5048954;28;20185;-73
2023/03/06 07:53:26;;;;;;;21.83;11.68;;;2.80;99.90;;;;;;5047247;28;20191;-73
2023/03/06 07:55:52;;;;;;;25.15;12.70;;;2.80;99.90;;;;;;5048800;28;20199;-73
2023/03/06 07:58:18;;;;;;;18.40;10.70;;;2.80;99.90;;;;;;5048588;28;20223;-73
2023/03/06 08:00:44;;;;;;;18.77;10.23;;;2.90;99.90;;;;;;5047280;28;20427;-74
2023/03/06 08:03:11;;;;;;;17.60;10.80;;;2.90;99.90;;;;;;5047283;28;20197;-73
2023/03/06 08:05:37;;;;;;;17.13;10.43;;;2.90;99.90;;;;;;5047498;28;20184;-73
2023/03/06 08:08:02;;;;;;;29.70;10.10;;;2.90;99.90;;;;;;5048445;28;20641;-73
2023/03/06 08:10:28;;;;;;;17.07;10.43;;;3.00;99.90;;;;;;5048528;28;20419;-73
2023/03/06 08:12:53;;;;;;;20.47;11.87;;;3.10;99.90;;;;;;5046966;28;20193;-74
2023/03/06 08:15:19;;;;;;;17.70;10.10;;;3.20;99.90;;;;;;5048621;28;20180;-74
2023/03/06 08:17:45;;;;;;;22.77;11.30;;;3.20;99.90;;;;;;5048334;28;20591;-73
2023/03/06 08:20:11;;;;;;;20.80;11.93;;;3.00;99.90;;;;;;5047245;28;20836;-73
2023/03/06 08:22:37;;;;;;;14.85;9.30;;;3.10;99.90;;;;;;5048962;28;20561;-73
2023/03/06 08:25:04;;;;;;;21.55;11.73;;;3.10;99.90;;;;;;5047463;28;20205;-73
2023/03/06 08:27:31;;;;;;;20.67;12.43;;;3.10;99.90;;;;;;5048007;28;20607;-73
2023/03/06 08:29:57;;;;;;;34.55;15.82;;;3.20;99.90;;;;;;5048466;28;20193;-73
2023/03/06 08:32:23;;;;;;;22.80;12.03;;;3.20;99.90;;;;;;5048487;28;20193;-73
2023/03/06 08:34:48;;;;;;;18.50;10.47;;;3.10;99.90;;;;;;5048632;28;20428;-73
2023/03/06 08:37:14;;;;;;;17.70;10.87;;;3.10;99.90;;;;;;5046592;28;20200;-73
2023/03/06 08:39:39;;;;;;;23.43;13.37;;;3.30;99.90;;;;;;5046770;28;20189;-73
2023/03/06 08:42:05;;;;;;;38.23;16.00;;;3.50;99.90;;;;;;5046582;28;20179;-73
2023/03/06 08:44:31;;;;;;;25.17;13.07;;;3.70;99.90;;;;;;5048210;28;20219;-73
2023/03/06 08:46:57;;;;;;;25.47;13.40;;;3.80;99.90;;;;;;5048087;28;20470;-73
2023/03/06 08:49:22;;;;;;;31.30;16.23;;;3.90;99.90;;;;;;5046606;28;20209;-73
2023/03/06 08:51:48;;;;;;;28.70;15.30;;;3.90;99.90;;;;;;5048056;28;20208;-73
2023/03/06 08:54:13;;;;;;;30.23;14.50;;;4.10;99.90;;;;;;5048305;28;20212;-73
2023/03/06 08:56:39;;;;;;;23.60;13.20;;;4.20;99.90;;;;;;5030124;28;20663;-73
2023/03/06 08:59:05;;;;;;;17.60;9.57;;;4.30;99.90;;;;;;5046389;28;20218;-74
2023/03/06 09:01:34;;;;;;;18.35;10.13;;;4.40;99.90;;;;;;5048033;28;20183;-73
2023/03/06 09:04:02;;;;;;;27.63;14.43;;;4.50;99.90;;;;;;5047881;28;20183;-73
2023/03/06 09:06:31;;;;;;;21.88;12.70;;;4.70;99.90;;;;;;5047865;28;20188;-74
2023/03/06 09:08:57;;;;;;;22.70;12.80;;;4.70;99.90;;;;;;5047625;28;20210;-73
2023/03/06 09:11:25;;;;;;;22.73;10.57;;;4.80;99.90;;;;;;5047542;28;20259;-73
2023/03/06 09:13:51;;;;;;;21.20;11.00;;;4.90;99.90;;;;;;5047256;28;20425;-73
2023/03/06 09:16:17;;;;;;;26.67;13.93;;;5.00;99.90;;;;;;5047241;28;20635;-74
2023/03/06 09:18:42;;;;;;;16.90;10.50;;;5.00;99.90;;;;;;5045993;28;20305;-73
2023/03/06 09:21:08;;;;;;;19.00;11.80;;;4.80;99.90;;;;;;5045847;28;20191;-74
2023/03/06 09:23:35;;;;;;;18.07;10.80;;;4.80;99.90;;;;;;5047347;28;20562;-73
2023/03/06 09:26:01;;;;;;;16.27;10.73;;;4.90;99.90;;;;;;5047140;28;20508;-74
2023/03/06 09:28:27;;;;;;;22.70;12.50;;;4.90;99.90;;;;;;5028972;28;21052;-73
2023/03/06 09:30:53;;;;;;;29.23;14.30;;;4.80;99.90;;;;;;5047107;28;20183;-73
2023/03/06 09:33:20;;;;;;;18.23;10.33;;;4.70;99.90;;;;;;5047296;28;20214;-73
2023/03/06 09:35:53;;;;;;;21.83;11.87;;;4.80;99.90;;;;;;5047167;28;20600;-73
2023/03/06 09:38:22;;;;;;;23.47;11.40;;;4.70;99.90;;;;;;5046980;28;20579;-73
2023/03/06 09:40:54;;;;;;;19.70;11.47;;;4.40;99.90;;;;;;5047080;28;20949;-73
2023/03/06 09:43:27;;;;;;;17.17;9.20;;;4.40;99.90;;;;;;5047159;28;20416;-73
2023/03/06 09:45:53;;;;;;;15.40;9.00;;;4.40;99.90;;;;;;5047105;28;20405;-73
2023/03/06 09:48:25;;;;;;;31.23;15.70;;;4.40;99.90;;;;;;5046905;28;20479;-73
2023/03/06 09:50:57;;;;;;;19.47;10.67;;;4.40;99.90;;;;;;5047422;28;20433;-73
2023/03/06 09:53:55;;;;;;;23.83;12.95;;;4.50;99.90;;;;;;5045664;28;20433;-73
2023/03/06 09:56:23;;;;;;;15.10;8.65;;;4.40;99.90;;;;;;5047289;28;20277;-73
2023/03/06 09:58:54;;;;;;;20.17;11.63;;;4.30;99.90;;;;;;5045594;28;20222;-73
2023/03/06 10:01:27;;;;;;;12.57;7.73;;;4.10;99.90;;;;;;5047549;28;20917;-73
2023/03/06 10:04:08;;;;;;;13.33;7.50;;;4.10;99.90;;;;;;5045933;28;20454;-73
2023/03/06 10:06:45;;;;;;;15.07;9.20;;;4.20;99.90;;;;;;5047714;28;20850;-73
2023/03/06 10:09:24;;;;;;;13.55;9.00;;;4.20;99.90;;;;;;5046846;28;20459;-73
2023/03/06 10:12:16;;;;;;;12.60;8.03;;;4.20;99.90;;;;;;5046866;28;20194;-73
2023/03/06 10:14:50;;;;;;;16.90;9.60;;;4.10;99.90;;;;;;5047167;28;20427;-73
2023/03/06 10:17:19;;;;;;;9.80;7.35;;;4.00;99.90;;;;;;5047321;28;20191;-73
2023/03/06 10:19:48;;;;;;;13.90;8.65;;;3.80;99.90;;;;;;5045761;28;20314;-73
2023/03/06 10:22:32;;;;;;;15.43;8.52;;;4.00;99.90;;;;;;5029862;28;20236;-73
2023/03/06 10:24:57;;;;;;;15.77;8.38;;;3.90;99.90;;;;;;5047477;28;20663;-74
2023/03/06 10:27:49;;;;;;;13.67;9.10;;;3.70;99.90;;;;;;5045814;28;20218;-73
2023/03/06 10:30:31;;;;;;;15.38;8.90;;;3.80;99.90;;;;;;5051241;28;20190;-73
2023/03/06 10:33:16;;;;;;;15.57;9.00;;;3.90;99.90;;;;;;5049740;28;20251;-73
2023/03/06 10:35:50;;;;;;;19.80;10.93;;;3.80;99.90;;;;;;5050672;28;20204;-73
2023/03/06 10:38:31;;;;;;;14.68;8.70;;;3.70;99.90;;;;;;5050613;28;20273;-73
2023/03/06 10:41:15;;;;;;;17.05;10.35;;;3.60;99.90;;;;;;5048983;28;20250;-72
2023/03/06 10:43:59;;;;;;;24.08;11.73;;;3.70;99.90;;;;;;5049139;28;20194;-75
2023/03/06 10:46:36;;;;;;;16.52;9.35;;;4.00;99.90;;;;;;5050513;28;20283;-74
2023/03/06 10:49:29;;;;;;;14.95;8.57;;;4.20;99.90;;;;;;5049294;28;20209;-74
2023/03/06 10:52:00;;;;;;;18.85;10.50;;;4.30;99.90;;;;;;5050419;28;20178;-74
2023/03/06 10:54:27;;;;;;;13.57;9.60;;;4.60;99.90;;;;;;5048994;28;20194;-74
2023/03/06 10:56:52;;;;;;;11.90;8.10;;;5.20;99.90;;;;;;5050128;28;20804;-74
2023/03/06 10:59:27;;;;;;;16.10;9.40;;;5.60;99.90;;;;;;5050019;28;20469;-74
2023/03/06 11:01:56;;;;;;;15.30;9.75;;;5.80;98.20;;;;;;5049963;28;20176;-74
2023/03/06 11:04:22;;;;;;;12.80;8.25;;;6.50;98.10;;;;;;5048905;28;20192;-75
2023/03/06 11:07:05;;;;;;;12.67;8.10;;;6.90;96.00;;;;;;5048487;28;20290;-75
2023/03/06 11:09:34;;;;;;;14.77;9.17;;;6.90;93.90;;;;;;5032291;28;20481;-75
2023/03/06 11:12:28;;;;;;;15.43;9.60;;;6.90;94.30;;;;;;5050319;28;20448;-73
2023/03/06 11:15:08;;;;;;;13.83;8.90;;;6.80;93.90;;;;;;5051280;28;20414;-75
2023/03/06 11:17:50;;;;;;;12.87;8.40;;;6.00;93.80;;;;;;5049361;28;20894;-75
2023/03/06 11:20:36;;;;;;;14.77;9.23;;;5.90;95.30;;;;;;5049169;28;20924;-74
2023/03/06 11:23:37;;;;;;;15.80;9.07;;;5.70;95.20;;;;;;5050452;28;20442;-75
2023/03/06 11:26:15;;;;;;;14.70;9.53;;;5.20;97.10;;;;;;5048665;28;20418;-75
2023/03/06 11:29:07;;;;;;;14.33;9.27;;;5.20;98.40;;;;;;5049667;28;20460;-75
2023/03/06 11:31:37;;;;;;;14.87;9.23;;;5.20;98.90;;;;;;5048123;28;20528;-75
2023/03/06 11:34:29;;;;;;;13.53;8.70;;;5.20;99.20;;;;;;5031552;28;20427;-74
2023/03/06 11:37:22;;;;;;;14.98;10.00;;;5.10;99.70;;;;;;5049817;28;20473;-75
2023/03/06 11:39:52;;;;;;;11.93;8.87;;;5.00;99.90;;;;;;5049499;28;20195;-74
2023/03/06 11:42:28;;;;;;;15.52;9.73;;;5.10;99.90;;;;;;5047806;28;20472;-74
2023/03/06 11:45:22;;;;;;;19.60;9.40;;;5.20;99.90;;;;;;5049508;28;20258;-75
2023/03/06 11:48:02;;;;;;;16.33;9.80;;;5.40;99.90;;;;;;5049288;28;20206;-75
2023/03/06 11:50:39;;;;;;;16.38;9.30;;;5.50;99.40;;;;;;5049560;28;20235;-75
2023/03/06 11:53:09;;;;;;;12.13;7.70;;;5.60;99.90;;;;;;5047878;28;20332;-75
2023/03/06 11:55:53;;;;;;;14.60;9.73;;;5.70;98.70;;;;;;5049200;28;20207;-74
2023/03/06 11:58:40;;;;;;;19.35;9.60;;;5.80;99.00;;;;;;5048858;28;20465;-75
2023/03/06 12:01:43;;;;;;;13.83;8.43;;;6.00;98.30;;;;;;5048850;28;20249;-75
2023/03/06 12:04:46;;;;;;;12.53;8.43;;;5.90;97.20;;;;;;5048882;28;20410;-74
2023/03/06 12:07:39;;;;;;;14.90;9.67;;;5.90;97.80;;;;;;5032843;28;20410;-74
2023/03/06 12:10:17;;;;;;;14.07;8.50;;;5.80;98.00;;;;;;5048842;28;20980;-75
2023/03/06 12:12:54;;;;;;;18.20;9.00;;;5.80;98.10;;;;;;5048643;28;20413;-74
2023/03/06 12:15:46;;;;;;;15.20;9.10;;;5.80;98.00;;;;;;5047170;28;20402;-74
2023/03/06 12:18:31;;;;;;;13.93;8.07;;;5.70;97.40;;;;;;5048207;28;20480;-75
2023/03/06 12:21:07;;;;;;;15.05;9.27;;;5.60;97.00;;;;;;5046620;28;20666;-75
2023/03/06 12:24:03;;;;;;;13.80;8.30;;;5.50;98.00;;;;;;5048550;28;20215;-74
2023/03/06 12:26:41;;;;;;;18.03;9.77;;;5.70;98.30;;;;;;5048533;28;21215;-74
2023/03/06 12:29:32;;;;;;;14.43;8.33;;;5.60;96.70;;;;;;5048542;28;20944;-75
2023/03/06 12:32:13;;;;;;;12.60;8.27;;;5.70;97.50;;;;;;5048365;28;21140;-74
2023/03/06 12:34:44;;;;;;;15.20;8.90;;;5.60;96.70;;;;;;5046868;28;20437;-74
2023/03/06 12:37:20;;;;;;;18.43;8.77;;;5.70;97.40;;;;;;5048622;28;20463;-74
2023/03/06 12:40:11;;;;;;;9.90;6.87;;;5.70;95.60;;;;;;5048227;28;20444;-75
2023/03/06 12:42:43;;;;;;;9.67;6.73;;;5.80;94.30;;;;;;5048249;28;20425;-75
2023/03/06 12:45:21;;;;;;;7.33;5.20;;;5.70;92.30;;;;;;5048351;28;20422;-75
2023/03/06 12:47:48;;;;;;;11.70;6.53;;;5.50;91.40;;;;;;5046530;28;20458;-75
2023/03/06 12:50:32;;;;;;;10.70;6.80;;;5.50;92.40;;;;;;5048054;28;20426;-75
2023/03/06 12:53:03;;;;;;;10.67;6.20;;;5.70;92.60;;;;;;5047946;28;20885;-75